Time;durP1;ratioP1;P1;durP2;ratioP2;P2;SDS_P1;SDS_P2;PMS_P1;PMS_P2;Temp;Humidity;BMP_temperature;BMP_pressure;BME280_temperature;BME280_humidity;BME280_pressure;Samples;Min_cycle;Max_cycle;Signal;HPM_P1;HPM_P2
2021/03/25 00:00:29;;;;;;;25.10;11.05;;;;;;;2.55;81.59;99372.88;4955590;28;20062;-71
2021/03/25 00:02:58;;;;;;;25.02;9.90;;;;;;;2.50;81.57;99374.44;4955481;29;20030;-71
2021/03/25 00:05:25;;;;;;;18.80;9.60;;;;;;;2.46;81.85;99370.09;4955479;28;20027;-70
2021/03/25 00:07:51;;;;;;;24.70;10.95;;;;;;;2.44;81.92;99364.09;4955844;28;20111;-71
2021/03/25 00:10:25;;;;;;;18.88;10.10;;;;;;;2.36;82.04;99360.47;4955468;28;20080;-70
2021/03/25 00:12:50;;;;;;;18.85;10.32;;;;;;;2.36;81.80;99356.22;4955360;28;20038;-70
2021/03/25 00:15:16;;;;;;;17.48;10.40;;;;;;;2.31;82.39;99361.22;4955373;29;20031;-70
2021/03/25 00:17:42;;;;;;;24.70;12.38;;;;;;;2.27;82.40;99367.13;4947331;29;20028;-70
2021/03/25 00:20:10;;;;;;;21.92;9.63;;;;;;;2.24;82.59;99366.16;4955143;29;20027;-70
2021/03/25 00:22:36;;;;;;;20.52;9.85;;;;;;;2.24;82.51;99361.91;4953943;29;20455;-70
2021/03/25 00:25:02;;;;;;;15.60;9.77;;;;;;;2.18;82.70;99366.88;4955222;28;20110;-70
2021/03/25 00:27:28;;;;;;;15.75;9.00;;;;;;;2.06;83.02;99356.34;4955187;28;20453;-70
2021/03/25 00:29:53;;;;;;;17.70;9.63;;;;;;;2.04;83.43;99361.41;4955140;28;20042;-70
2021/03/25 00:32:19;;;;;;;16.33;9.63;;;;;;;2.03;83.39;99356.25;4954954;28;20078;-70
2021/03/25 00:34:44;;;;;;;17.45;9.20;;;;;;;1.97;83.42;99359.50;4955044;28;20388;-70
2021/03/25 00:37:09;;;;;;;16.15;10.13;;;;;;;2.03;83.25;99361.34;4955028;28;20074;-71
2021/03/25 00:39:35;;;;;;;14.52;8.60;;;;;;;1.99;83.40;99349.34;4954942;29;20034;-70
2021/03/25 00:42:00;;;;;;;12.73;8.38;;;;;;;2.00;83.19;99353.63;4954557;28;20031;-70
2021/03/25 00:44:25;;;;;;;18.08;9.93;;;;;;;1.90;83.54;99356.78;4954684;28;20407;-70
2021/03/25 00:46:51;;;;;;;15.35;8.57;;;;;;;1.82;83.82;99348.91;4935454;29;20107;-70
2021/03/25 00:49:16;;;;;;;14.30;9.07;;;;;;;1.74;84.32;99348.72;4935553;29;20369;-70
2021/03/25 00:51:41;;;;;;;19.50;8.80;;;;;;;1.88;83.82;99355.84;4935526;29;20661;-70
2021/03/25 00:54:08;;;;;;;16.30;9.13;;;;;;;1.77;83.90;99353.03;4935603;29;20032;-70
2021/03/25 00:56:34;;;;;;;18.17;9.40;;;;;;;1.76;84.00;99354.72;4935528;29;20035;-70
2021/03/25 00:58:59;;;;;;;15.45;9.57;;;;;;;1.67;84.54;99346.81;4935572;29;20500;-70
2021/03/25 05:16:35;;;;;;;19.17;9.85;;;;;;;-0.28;89.53;99286.59;5505922;23;20139;-66
2021/03/25 05:19:09;;;;;;;19.27;10.93;;;;;;;-0.21;89.57;99286.81;4897267;29;20047;-68
2021/03/25 05:22:05;;;;;;;18.83;10.35;;;;;;;-0.27;89.62;99288.34;4897153;29;20038;-68
2021/03/25 05:24:43;;;;;;;17.77;10.73;;;;;;;-0.26;89.60;99295.16;4911757;29;20025;-67
2021/03/25 05:27:19;;;;;;;24.00;11.77;;;;;;;-0.22;89.41;99293.56;4897137;29;20087;-67
2021/03/25 05:29:47;;;;;;;22.65;10.88;;;;;;;-0.20;89.34;99291.06;4897180;29;20031;-67
2021/03/25 05:32:17;;;;;;;25.85;12.40;;;;;;;-0.12;89.26;99297.28;4897516;29;20517;-71
2021/03/25 05:34:42;;;;;;;21.63;10.88;;;;;;;-0.02;88.84;99300.19;4896793;29;20056;-71
2021/03/25 05:37:08;;;;;;;22.23;12.27;;;;;;;-0.13;88.92;99300.66;4897103;29;20028;-70
2021/03/25 05:39:35;;;;;;;21.45;12.43;;;;;;;-0.10;88.71;99300.75;4897010;29;20111;-71
2021/03/25 05:42:07;;;;;;;20.52;10.48;;;;;;;-0.10;88.71;99295.66;4896841;29;20024;-71
2021/03/25 05:45:07;;;;;;;19.88;10.35;;;;;;;0.01;88.39;99307.06;4896876;29;20498;-72
2021/03/25 05:48:00;;;;;;;21.13;10.98;;;;;;;0.02;88.59;99300.28;4889265;29;20025;-71
2021/03/25 05:50:35;;;;;;;17.42;10.18;;;;;;;0.12;87.75;99298.06;4896692;29;20063;-71
2021/03/25 05:53:22;;;;;;;16.40;10.02;;;;;;;0.22;87.53;99305.19;4896776;29;20470;-72
2021/03/25 05:56:05;;;;;;;22.92;10.15;;;;;;;0.21;87.18;99308.56;4896819;29;20043;-71
2021/03/25 05:58:34;;;;;;;17.98;10.18;;;;;;;0.17;87.06;99306.72;4896763;29;20033;-71
2021/03/25 06:01:43;;;;;;;20.25;11.45;;;;;;;0.13;87.11;99304.91;4897014;29;20107;-71
2021/03/25 06:04:23;;;;;;;22.13;11.77;;;;;;;0.33;86.50;99308.06;4896727;29;20067;-71
2021/03/25 06:06:55;;;;;;;20.98;11.20;;;;;;;0.63;85.67;99313.25;4896758;29;20379;-71
2021/03/25 06:09:26;;;;;;;21.13;11.52;;;;;;;0.42;85.43;99312.59;4896828;29;20032;-71
2021/03/25 06:12:01;;;;;;;19.02;10.93;;;;;;;0.82;84.72;99318.88;4896616;29;20032;-71
2021/03/25 06:14:36;;;;;;;17.60;9.70;;;;;;;1.40;82.01;99311.22;4895395;29;20024;-72
2021/03/25 06:17:12;;;;;;;15.30;9.93;;;;;;;2.70;76.88;99309.25;4888590;29;20364;-71
2021/03/25 06:19:52;;;;;;;15.18;8.90;;;;;;;2.83;75.22;99308.69;4896907;29;20103;-71
2021/03/25 06:22:28;;;;;;;13.82;9.93;;;;;;;3.85;71.01;99309.81;4910980;29;20025;-71
2021/03/25 06:24:56;;;;;;;15.70;9.32;;;;;;;4.67;68.46;99306.84;4896570;29;20052;-71
2021/03/25 06:27:46;;;;;;;16.77;10.18;;;;;;;3.68;70.50;99308.69;4896487;29;20063;-72
2021/03/25 06:30:19;;;;;;;17.88;10.27;;;;;;;4.36;69.59;99311.53;4896525;29;20067;-72
2021/03/25 06:32:55;;;;;;;17.98;8.75;;;;;;;4.90;67.16;99305.44;4896421;29;20029;-71
2021/03/25 06:35:27;;;;;;;16.70;9.23;;;;;;;5.06;65.43;99303.06;4896494;29;20029;-71
2021/03/25 06:38:01;;;;;;;19.50;9.40;;;;;;;5.35;64.88;99309.41;4896533;29;20071;-71
2021/03/25 06:40:35;;;;;;;14.65;8.82;;;;;;;5.58;63.37;99306.25;4896678;29;20028;-71
2021/03/25 06:43:23;;;;;;;17.77;9.90;;;;;;;5.48;64.16;99310.44;4896290;29;20021;-71
2021/03/25 06:45:59;;;;;;;17.45;10.00;;;;;;;5.18;66.00;99318.66;4894183;29;20603;-71
2021/03/25 06:48:35;;;;;;;18.67;9.18;;;;;;;5.11;65.37;99314.25;4896749;29;20032;-71
2021/03/25 06:51:18;;;;;;;19.08;9.43;;;;;;;4.64;67.66;99325.63;4899655;29;20047;-71
2021/03/25 06:53:44;;;;;;;23.10;11.00;;;;;;;4.66;67.68;99324.78;4900054;29;20497;-71
2021/03/25 06:56:27;;;;;;;16.77;8.77;;;;;;;4.45;68.75;99325.31;4899689;29;20088;-71
2021/03/25 06:58:58;;;;;;;19.88;9.90;;;;;;;4.44;69.65;99328.72;4899769;29;20505;-71
2021/03/25 07:01:35;;;;;;;17.92;10.35;;;;;;;4.56;69.54;99321.22;4899530;29;20534;-71
2021/03/25 07:04:31;;;;;;;20.38;10.32;;;;;;;4.29;70.24;99324.22;4898036;29;20029;-71
2021/03/25 07:07:01;;;;;;;19.65;9.57;;;;;;;4.52;69.71;99328.00;4885109;29;20176;-71
2021/03/25 07:09:31;;;;;;;21.50;10.45;;;;;;;4.21;71.12;99324.13;4898053;29;20371;-71
2021/03/25 07:12:07;;;;;;;;;;;;;;;4.50;70.79;99323.72;4888859;29;20025;-71
2021/03/25 07:14:43;;;;;;;18.33;9.82;;;;;;;4.43;70.92;99327.00;4900285;29;19944;-71
2021/03/25 07:17:13;;;;;;;19.33;10.10;;;;;;;4.36;71.40;99320.94;4890878;29;20032;-71
2021/03/25 07:19:41;;;;;;;17.95;10.52;;;;;;;4.49;70.62;99329.66;4898803;29;20055;-71
2021/03/25 07:22:22;;;;;;;17.38;9.73;;;;;;;5.56;68.12;99313.94;4898977;29;20024;-71
2021/03/25 07:24:49;;;;;;;15.30;9.80;;;;;;;6.90;62.12;99313.31;4899337;29;20415;-71
2021/03/25 07:27:33;;;;;;;15.13;9.05;;;;;;;7.46;61.19;99311.00;4899045;29;20630;-72
2021/03/25 07:30:05;;;;;;;14.45;9.73;;;;;;;7.64;60.23;99309.31;4898084;29;20486;-71
2021/03/25 07:32:44;;;;;;;16.75;9.77;;;;;;;7.60;60.63;99312.75;4891256;29;20442;-72
2021/03/25 07:35:14;;;;;;;12.80;9.32;;;;;;;8.60;57.57;99317.13;4884982;29;20017;-71
2021/03/25 07:37:42;;;;;;;14.52;10.23;;;;;;;8.60;57.47;99311.09;4865368;29;20470;-71
2021/03/25 07:40:22;;;;;;;19.52;9.52;;;;;;;8.26;58.12;99318.84;4887284;29;20065;-71
2021/03/25 07:42:48;;;;;;;17.30;9.75;;;;;;;8.40;57.53;99313.72;4889140;29;20060;-71
2021/03/25 07:45:22;;;;;;;17.65;9.88;;;;;;;8.47;58.22;99315.44;4892100;29;20446;-71
2021/03/25 07:47:49;;;;;;;18.40;10.02;;;;;;;7.04;61.88;99326.28;4890873;29;20496;-71
2021/03/25 07:50:29;;;;;;;23.88;11.07;;;;;;;6.84;63.36;99319.31;4898785;29;20024;-71
2021/03/25 07:52:56;;;;;;;16.10;9.88;;;;;;;7.24;63.59;99313.47;4897724;29;20043;-71
2021/03/25 07:55:23;;;;;;;22.13;10.35;;;;;;;6.87;64.31;99314.19;4890821;29;20032;-72
2021/03/25 07:57:50;;;;;;;27.42;11.43;;;;;;;6.65;65.35;99317.47;4887409;29;20065;-72
2021/03/25 08:00:34;;;;;;;22.25;11.13;;;;;;;7.18;64.39;99314.31;4881606;29;20025;-72
2021/03/25 08:03:25;;;;;;;16.38;10.48;;;;;;;7.03;64.33;99309.97;4887283;29;20081;-72
2021/03/25 08:05:51;;;;;;;19.48;10.85;;;;;;;6.78;65.89;99314.13;4876585;29;20036;-71
2021/03/25 08:08:19;;;;;;;22.25;11.80;;;;;;;7.08;65.90;99315.13;4877980;29;20028;-71
2021/03/25 08:10:46;;;;;;;17.33;11.07;;;;;;;7.18;65.90;99304.00;4891006;29;20055;-71
2021/03/25 08:13:18;;;;;;;24.98;11.43;;;;;;;6.91;66.05;99304.72;4901184;29;20044;-72
2021/03/25 08:15:47;;;;;;;26.95;12.10;;;;;;;7.73;64.75;99304.16;4893309;29;20490;-71
2021/03/25 08:18:57;;;;;;;25.50;11.98;;;;;;;8.18;62.58;99292.19;4883533;29;20029;-73
2021/03/25 08:21:46;;;;;;;19.58;11.93;;;;;;;10.53;57.15;99285.91;4885394;29;20064;-71
2021/03/25 08:24:40;;;;;;;18.75;10.75;;;;;;;11.89;51.21;99287.72;4879218;29;20497;-72
2021/03/25 08:27:41;;;;;;;18.63;9.73;;;;;;;13.35;47.39;99276.47;4877121;29;20045;-71
2021/03/25 08:30:09;;;;;;;23.45;9.85;;;;;;;15.48;43.24;99284.97;4895341;29;20060;-71
2021/03/25 08:32:40;;;;;;;16.85;10.20;;;;;;;17.38;39.17;99273.38;4882178;29;20132;-72
2021/03/25 08:35:36;;;;;;;17.90;9.95;;;;;;;16.65;39.68;99288.19;4884633;29;20030;-72
2021/03/25 08:38:39;;;;;;;15.13;9.52;;;;;;;17.11;39.08;99280.50;4907245;29;20394;-72
2021/03/25 08:41:18;;;;;;;20.25;9.30;;;;;;;17.44;38.17;99283.63;4897042;29;20024;-72
2021/03/25 08:44:07;;;;;;;15.75;9.38;;;;;;;16.55;38.72;99294.66;4897650;29;20064;-72
2021/03/25 08:46:44;;;;;;;15.13;8.75;;;;;;;14.67;42.22;99294.22;4888770;29;20534;-71
2021/03/25 08:49:16;;;;;;;16.02;9.88;;;;;;;15.60;41.83;99284.59;4882112;29;20137;-71
2021/03/25 08:51:44;;;;;;;12.85;8.98;;;;;;;15.06;41.75;99285.28;4885353;29;20113;-73
2021/03/25 08:54:40;;;;;;;13.82;8.85;;;;;;;17.08;38.39;99289.31;4878844;29;20404;-72
2021/03/25 08:57:22;;;;;;;11.18;8.93;;;;;;;16.46;39.06;99297.56;4879921;29;20041;-72
2021/03/25 09:00:06;;;;;;;12.45;8.38;;;;;;;17.06;37.94;99272.81;4878835;29;20494;-72
2021/03/25 09:02:37;;;;;;;14.98;9.02;;;;;;;17.24;38.41;99270.44;4877776;29;20447;-72
2021/03/25 09:05:17;;;;;;;20.35;9.95;;;;;;;16.86;38.39;99286.59;4878438;29;20155;-72
2021/03/25 09:07:42;;;;;;;;;;;;;;;18.90;36.02;99275.97;4878712;29;20060;-73
2021/03/25 09:10:27;;;;;;;17.23;9.10;;;;;;;19.99;33.97;99274.47;4878255;29;20014;-73
2021/03/25 09:12:52;;;;;;;17.20;9.13;;;;;;;20.36;32.26;99277.94;4878267;29;20025;-73
2021/03/25 09:15:20;;;;;;;10.68;8.60;;;;;;;20.20;33.18;99278.66;4885307;29;20049;-72
2021/03/25 09:17:55;;;;;;;11.23;7.47;;;;;;;20.82;30.85;99276.47;4888117;29;20084;-73
2021/03/25 09:20:49;;;;;;;14.07;8.80;;;;;;;21.91;30.04;99267.97;4897098;29;20048;-71
2021/03/25 09:23:34;;;;;;;13.48;8.18;;;;;;;21.27;30.54;99267.91;4897255;29;20044;-71
2021/03/25 09:26:00;;;;;;;18.95;7.78;;;;;;;20.67;31.31;99272.00;4896353;29;20060;-71
2021/03/25 09:29:00;;;;;;;19.10;9.55;;;;;;;21.78;30.42;99258.09;4896737;29;20533;-73
2021/03/25 09:31:56;;;;;;;13.93;7.75;;;;;;;22.94;27.58;99260.19;4896958;29;20176;-73
2021/03/25 09:34:24;;;;;;;16.30;7.75;;;;;;;23.85;26.16;99259.72;4887246;29;20072;-70
2021/03/25 09:37:12;;;;;;;10.50;6.88;;;;;;;24.69;25.43;99261.25;4911148;29;20028;-71
2021/03/25 09:39:38;;;;;;;9.88;6.18;;;;;;;24.02;25.12;99265.72;4863785;28;20032;-71
2021/03/25 09:42:14;;;;;;;8.95;6.07;;;;;;;25.83;24.11;99260.31;4806551;29;20044;-71
2021/03/25 09:44:40;;;;;;;10.80;5.80;;;;;;;27.74;20.43;99252.72;4762723;29;20049;-70
2021/03/25 09:47:19;;;;;;;11.68;6.10;;;;;;;27.02;21.25;99255.72;4795183;29;20087;-71
2021/03/25 09:49:49;;;;;;;4.43;3.88;;;;;;;27.58;19.54;99257.56;4755200;29;20048;-71
2021/03/25 09:52:44;;;;;;;5.82;4.35;;;;;;;25.57;21.60;99263.94;4803161;29;20040;-71
2021/03/25 09:55:15;;;;;;;6.68;4.13;;;;;;;26.98;20.20;99264.06;4752897;29;20036;-74
2021/03/25 09:57:43;;;;;;;7.82;5.18;;;;;;;25.84;20.85;99261.97;4760914;29;20032;-71
2021/03/25 10:00:17;;;;;;;5.43;4.47;;;;;;;23.57;23.58;99259.78;4803576;29;20056;-71
2021/03/25 10:02:44;;;;;;;5.53;4.13;;;;;;;23.99;24.07;99265.94;4753763;29;20041;-71
2021/03/25 10:05:25;;;;;;;8.23;4.43;;;;;;;23.74;23.97;99251.66;4804945;29;20437;-71
2021/03/25 10:07:50;;;;;;;7.80;4.88;;;;;;;24.76;22.76;99251.94;4754260;29;20510;-71
2021/03/25 10:10:58;;;;;;;9.07;4.77;;;;;;;24.92;23.88;99250.88;4805136;29;20040;-71
2021/03/25 10:13:38;;;;;;;6.15;4.20;;;;;;;25.46;21.56;99248.81;4754699;29;20301;-71
2021/03/25 10:16:06;;;;;;;6.05;4.22;;;;;;;25.72;21.48;99251.38;4744452;29;20040;-71
2021/03/25 10:18:32;;;;;;;10.10;5.07;;;;;;;25.34;23.43;99247.03;4799036;29;20422;-71
2021/03/25 10:21:15;;;;;;;6.78;4.28;;;;;;;26.39;20.76;99239.25;4796551;28;20166;-71
2021/03/25 10:23:49;;;;;;;9.32;4.22;;;;;;;25.63;21.63;99243.13;4778764;29;20401;-71
2021/03/25 10:26:24;;;;;;;6.93;4.43;;;;;;;25.57;21.41;99242.72;4792528;29;20092;-71
2021/03/25 10:29:06;;;;;;;6.05;4.60;;;;;;;24.20;23.34;99243.31;4759998;29;20047;-71
2021/03/25 10:31:46;;;;;;;8.10;4.50;;;;;;;23.48;23.95;99239.19;4803693;29;20506;-71
2021/03/25 10:34:22;;;;;;;7.55;4.80;;;;;;;23.97;23.78;99241.34;4756589;29;20097;-71
2021/03/25 10:36:52;;;;;;;7.05;4.75;;;;;;;23.65;24.16;99236.38;4762403;28;20039;-71
2021/03/25 10:39:31;;;;;;;12.70;4.72;;;;;;;24.04;23.01;99232.06;4808511;29;20104;-71
2021/03/25 10:42:14;;;;;;;8.57;4.93;;;;;;;25.52;22.19;99223.63;4760978;29;20130;-71
2021/03/25 10:44:40;;;;;;;5.32;4.10;;;;;;;25.94;21.40;99218.81;4781422;28;20525;-71
2021/03/25 10:47:09;;;;;;;12.85;4.07;;;;;;;25.50;21.53;99214.94;4776963;29;20049;-71
2021/03/25 10:49:43;;;;;;;6.78;4.22;;;;;;;24.06;23.85;99208.97;4785952;29;20037;-71
2021/03/25 10:52:30;;;;;;;6.78;4.50;;;;;;;25.08;21.60;99203.78;4741759;29;20037;-71
2021/03/25 10:55:02;;;;;;;7.63;4.40;;;;;;;24.50;21.68;99210.44;4739884;29;20053;-71
2021/03/25 10:57:29;;;;;;;7.03;4.32;;;;;;;23.48;24.20;99210.09;4788177;29;20041;-71
2021/03/25 11:00:01;;;;;;;8.45;5.20;;;;;;;24.15;23.85;99203.06;4744656;29;20037;-71
2021/03/25 11:02:46;;;;;;;7.43;4.15;;;;;;;22.57;24.34;99210.38;4787788;29;20052;-71
2021/03/25 11:05:29;;;;;;;8.13;4.30;;;;;;;23.62;23.17;99204.78;4737583;29;20124;-71
2021/03/25 11:08:00;;;;;;;7.47;4.50;;;;;;;22.30;24.91;99201.50;4742308;29;20049;-71
2021/03/25 11:10:35;;;;;;;7.30;4.60;;;;;;;22.96;24.72;99201.00;4794646;28;20047;-72
2021/03/25 11:13:07;;;;;;;7.93;5.00;;;;;;;23.18;24.12;99195.22;4745824;29;20144;-71
2021/03/25 11:15:56;;;;;;;7.70;4.97;;;;;;;22.45;24.72;99197.09;4797876;29;20152;-72
2021/03/25 11:18:32;;;;;;;9.35;5.85;;;;;;;21.72;25.46;99200.41;4744245;29;20058;-72
2021/03/25 11:20:59;;;;;;;10.70;5.32;;;;;;;24.60;22.95;99187.66;4748733;29;20071;-71
2021/03/25 11:23:26;;;;;;;8.93;5.80;;;;;;;23.90;23.57;99195.06;4814259;29;20049;-72
2021/03/25 11:26:15;;;;;;;9.45;6.13;;;;;;;22.43;24.95;99193.66;4760794;29;20067;-72
2021/03/25 11:28:41;;;;;;;;;;;;;;;24.57;22.86;99185.25;4787440;29;20052;-71
2021/03/25 11:31:18;;;;;;;9.10;6.13;;;;;;;22.84;23.97;99191.16;4760644;29;20361;-71
2021/03/25 11:33:44;;;;;;;13.93;6.03;;;;;;;21.85;26.13;99189.16;4785146;29;20043;-71
2021/03/25 11:36:10;;;;;;;10.02;5.78;;;;;;;20.12;28.32;99190.53;4799367;29;20573;-71
2021/03/25 11:38:43;;;;;;;12.48;6.10;;;;;;;22.89;24.82;99181.19;4808592;29;20530;-71
2021/03/25 11:41:17;;;;;;;11.43;6.70;;;;;;;21.96;24.60;99176.19;4755606;29;20062;-71
2021/03/25 11:43:47;;;;;;;11.15;5.90;;;;;;;22.65;24.63;99170.31;4802368;28;20131;-71
2021/03/25 11:46:40;;;;;;;10.02;5.65;;;;;;;24.44;22.96;99176.44;4796699;29;20164;-71
2021/03/25 11:49:13;;;;;;;11.80;6.28;;;;;;;25.08;22.63;99167.50;4758074;29;20068;-71
2021/03/25 11:51:45;;;;;;;14.25;7.53;;;;;;;24.90;22.43;99170.56;4799622;29;20044;-71
2021/03/25 11:54:20;;;;;;;11.52;6.78;;;;;;;20.31;27.09;99186.03;4777199;29;21044;-71
2021/03/25 11:56:56;;;;;;;12.95;7.18;;;;;;;20.52;27.85;99173.56;4769447;28;20744;-71
2021/03/25 11:59:26;;;;;;;12.98;7.22;;;;;;;21.65;26.73;99172.66;4802463;28;20545;-71
2021/03/25 12:02:22;;;;;;;10.38;6.10;;;;;;;22.31;26.08;99159.16;4756038;28;20040;-71
2021/03/25 12:04:50;;;;;;;14.68;7.72;;;;;;;24.50;23.13;99160.13;4756556;28;20963;-71
2021/03/25 12:07:21;;;;;;;12.00;7.38;;;;;;;25.71;22.46;99154.97;4799948;29;20154;-72
2021/03/25 12:10:21;;;;;;;12.93;6.95;;;;;;;25.29;21.73;99154.53;4766735;29;21399;-71
2021/03/25 12:12:48;;;;;;;11.30;6.57;;;;;;;25.25;21.60;99158.34;4767414;28;20052;-71
2021/03/25 12:15:15;;;;;;;17.63;7.65;;;;;;;24.31;22.51;99155.19;4799000;29;20056;-71
2021/03/25 12:17:53;;;;;;;12.95;8.13;;;;;;;22.58;25.23;99158.44;4796124;29;20108;-71
2021/03/25 12:20:39;;;;;;;12.93;8.15;;;;;;;21.98;26.11;99150.56;4780946;29;20050;-71
2021/03/25 12:23:13;;;;;;;14.70;8.13;;;;;;;22.03;26.40;99140.56;4758252;28;20048;-71
2021/03/25 12:25:39;;;;;;;17.10;8.68;;;;;;;20.92;27.07;99145.09;4804333;29;20040;-71
2021/03/25 12:28:04;;;;;;;13.30;6.97;;;;;;;21.15;28.54;99139.44;4746891;29;20055;-71
2021/03/25 12:30:30;;;;;;;18.00;8.48;;;;;;;20.20;28.36;99143.63;4792296;28;20047;-71
2021/03/25 12:32:55;;;;;;;12.23;6.55;;;;;;;21.01;27.45;99128.81;4763224;28;20124;-71
2021/03/25 12:35:23;;;;;;;14.13;8.25;;;;;;;20.57;28.41;99139.97;4777868;28;20032;-71
2021/03/25 12:37:50;;;;;;;22.08;8.38;;;;;;;20.49;29.34;99135.09;4781851;28;20060;-70
2021/03/25 12:40:20;;;;;;;16.25;8.57;;;;;;;20.09;30.01;99133.66;4745147;29;20511;-71
2021/03/25 12:42:46;;;;;;;17.98;8.40;;;;;;;19.86;29.99;99133.97;4780550;28;20049;-71
2021/03/25 12:45:25;;;;;;;11.45;6.28;;;;;;;19.93;29.45;99132.75;4739398;28;20117;-71
2021/03/25 12:47:51;;;;;;;11.18;6.68;;;;;;;19.61;29.73;99140.44;4880479;29;20473;-71
2021/03/25 12:50:17;;;;;;;18.27;7.72;;;;;;;18.18;31.84;99125.13;4880464;29;20051;-71
2021/03/25 12:52:42;;;;;;;13.80;6.80;;;;;;;18.91;32.00;99136.75;4880666;29;20025;-71
2021/03/25 12:55:08;;;;;;;11.38;5.82;;;;;;;19.36;30.83;99132.00;4879042;29;20034;-71
2021/03/25 12:57:33;;;;;;;12.10;7.03;;;;;;;19.72;29.71;99124.97;4886671;29;20032;-71
2021/03/25 12:59:59;;;;;;;14.40;6.25;;;;;;;19.85;29.98;99116.47;4903844;29;20036;-71
2021/03/25 13:02:24;;;;;;;12.15;6.78;;;;;;;18.79;30.79;99125.94;4889524;29;20155;-71
2021/03/25 13:04:50;;;;;;;11.55;6.80;;;;;;;19.18;31.58;99125.84;4889218;29;20111;-72
2021/03/25 13:07:15;;;;;;;18.85;7.35;;;;;;;18.95;31.90;99121.66;4895260;29;20028;-72
2021/03/25 13:09:41;;;;;;;13.77;7.20;;;;;;;18.46;32.31;99118.63;4895404;29;20032;-72
2021/03/25 13:12:13;;;;;;;11.98;6.82;;;;;;;18.54;32.08;99111.28;4895803;29;20409;-72
2021/03/25 13:14:38;;;;;;;16.95;7.90;;;;;;;17.58;33.14;99112.78;4895920;29;20028;-72
2021/03/25 13:17:04;;;;;;;14.88;7.43;;;;;;;18.29;33.33;99110.69;4894255;29;20752;-72
2021/03/25 13:19:30;;;;;;;15.25;7.25;;;;;;;18.48;33.19;99107.16;4894980;29;20038;-72
2021/03/25 13:21:55;;;;;;;15.93;6.82;;;;;;;18.03;33.38;99104.78;4895148;29;20036;-72
2021/03/25 13:24:21;;;;;;;14.07;6.80;;;;;;;18.48;33.21;99095.81;4895785;29;20067;-71
2021/03/25 13:26:46;;;;;;;15.57;6.55;;;;;;;18.67;32.35;99101.09;4894444;29;20076;-71
2021/03/25 13:29:12;;;;;;;10.95;7.43;;;;;;;18.80;32.69;99096.13;4895647;29;20083;-72
2021/03/25 13:31:37;;;;;;;13.63;6.88;;;;;;;18.30;33.20;99097.47;4894471;29;20035;-71
2021/03/25 13:34:02;;;;;;;30.13;18.38;;;;;;;18.39;33.63;99096.22;4895604;29;20039;-71
2021/03/25 13:36:27;;;;;;;14.18;7.35;;;;;;;18.04;34.43;99097.78;4891093;29;20083;-71
2021/03/25 13:38:53;;;;;;;16.10;6.38;;;;;;;18.70;33.99;99090.47;4895522;29;20079;-71
2021/03/25 13:41:18;;;;;;;13.57;7.30;;;;;;;18.03;35.21;99093.44;4903168;29;21548;-71
2021/03/25 13:43:43;;;;;;;14.90;6.45;;;;;;;17.80;34.89;99102.31;4894322;29;20683;-73
2021/03/25 13:46:09;;;;;;;11.52;6.60;;;;;;;18.24;34.76;99093.34;4896123;29;20055;-73
2021/03/25 13:48:34;;;;;;;11.05;6.45;;;;;;;18.85;32.94;99096.75;4894016;29;20041;-71
2021/03/25 13:51:02;;;;;;;11.93;6.50;;;;;;;18.89;33.12;99088.69;4903600;29;20139;-71
2021/03/25 13:53:28;;;;;;;11.70;6.53;;;;;;;18.38;34.29;99086.66;4894099;29;20032;-71
2021/03/25 13:55:53;;;;;;;15.00;6.55;;;;;;;18.81;34.05;99082.06;4894214;29;20036;-71
2021/03/25 13:58:20;;;;;;;15.75;6.45;;;;;;;19.48;32.43;99079.69;4895277;29;20044;-71
2021/03/25 14:00:46;;;;;;;18.05;10.45;;;;;;;19.55;32.87;99074.16;4894746;29;20040;-71
2021/03/25 14:03:15;;;;;;;11.25;6.25;;;;;;;19.54;33.11;99073.31;4894906;29;20040;-71
2021/03/25 14:05:40;;;;;;;13.98;7.10;;;;;;;19.11;34.02;99091.16;4894444;29;20520;-71
2021/03/25 14:08:06;;;;;;;16.52;8.20;;;;;;;18.17;33.57;99081.41;4894758;29;20036;-70
2021/03/25 14:10:34;;;;;;;14.80;8.00;;;;;;;18.52;34.75;99076.38;4895258;29;20605;-70
2021/03/25 14:13:02;;;;;;;11.85;6.68;;;;;;;18.85;34.80;99073.13;4883505;29;20036;-71
2021/03/25 14:15:32;;;;;;;10.23;6.63;;;;;;;18.83;34.21;99082.88;4883193;29;20036;-70
2021/03/25 14:17:58;;;;;;;13.75;7.35;;;;;;;18.54;35.27;99069.28;4896200;29;20044;-71
2021/03/25 14:20:26;;;;;;;10.65;6.50;;;;;;;18.35;34.76;99079.75;4875007;29;20486;-71
2021/03/25 14:22:51;;;;;;;10.65;6.20;;;;;;;18.45;35.03;99077.56;4874935;29;20043;-71
2021/03/25 14:25:31;;;;;;;11.18;6.15;;;;;;;18.16;35.20;99078.88;4873988;29;20398;-71
2021/03/25 14:27:56;;;;;;;11.52;6.47;;;;;;;17.77;34.99;99086.69;4873820;29;20028;-71
2021/03/25 14:30:22;;;;;;;23.73;12.70;;;;;;;17.56;36.13;99080.56;4871481;29;20047;-71
2021/03/25 14:32:49;;;;;;;11.43;6.93;;;;;;;17.56;34.58;99084.03;4878653;29;20419;-71
2021/03/25 14:35:16;;;;;;;10.63;6.07;;;;;;;17.77;35.16;99076.22;4866720;29;25774;-71
2021/03/25 14:37:42;;;;;;;13.00;6.95;;;;;;;17.45;35.78;99080.97;4865840;29;20088;-71
2021/03/25 14:40:09;;;;;;;13.40;7.03;;;;;;;17.86;35.26;99081.06;4876009;29;20128;-71
2021/03/25 14:42:34;;;;;;;12.35;7.00;;;;;;;17.82;35.94;99079.47;4870586;29;20028;-70
2021/03/25 14:45:00;;;;;;;11.68;6.55;;;;;;;17.71;35.15;99083.38;4875231;29;20041;-70
2021/03/25 14:47:25;;;;;;;16.98;6.75;;;;;;;17.58;35.92;99083.94;4874481;29;20039;-71
2021/03/25 14:49:50;;;;;;;11.23;6.88;;;;;;;17.82;35.20;99082.09;4884654;29;20074;-71
2021/03/25 14:52:16;;;;;;;17.67;6.25;;;;;;;18.15;34.45;99083.28;4885475;29;20039;-70
2021/03/25 14:54:41;;;;;;;15.35;7.00;;;;;;;17.68;35.27;99088.75;4885992;29;20028;-70
2021/03/25 14:57:07;;;;;;;10.45;6.20;;;;;;;17.78;35.29;99077.91;4894425;29;20032;-71
2021/03/25 14:59:32;;;;;;;12.55;8.20;;;;;;;18.02;35.03;99078.63;4879040;29;20180;-71
2021/03/25 15:01:58;;;;;;;12.38;7.03;;;;;;;17.94;35.20;99073.72;4893294;29;20514;-70
2021/03/25 15:04:23;;;;;;;16.95;6.70;;;;;;;18.16;34.40;99073.63;4893721;29;20498;-71
2021/03/25 15:06:49;;;;;;;13.77;7.03;;;;;;;17.59;35.72;99081.25;4892221;29;20168;-71
2021/03/25 15:09:14;;;;;;;12.38;7.30;;;;;;;17.23;35.70;99073.16;4897936;29;21058;-71
2021/03/25 15:11:40;;;;;;;13.27;7.72;;;;;;;16.86;36.40;99076.38;4892651;29;20055;-72
2021/03/25 15:14:06;;;;;;;13.45;7.25;;;;;;;17.40;35.54;99069.84;4887871;29;20065;-71
2021/03/25 15:16:32;;;;;;;14.57;7.28;;;;;;;17.08;36.79;99066.78;4902546;29;20060;-71
2021/03/25 15:18:58;;;;;;;12.38;6.82;;;;;;;16.90;36.76;99077.97;4888816;29;20116;-70
2021/03/25 15:21:24;;;;;;;13.13;6.82;;;;;;;16.90;37.01;99072.72;4889400;29;20759;-71
2021/03/25 15:23:50;;;;;;;13.73;7.43;;;;;;;16.47;38.29;99069.09;4888141;29;20055;-71
2021/03/25 15:26:19;;;;;;;18.00;7.15;;;;;;;16.70;37.57;99076.94;4888436;29;20040;-72
2021/03/25 15:28:44;;;;;;;11.52;7.32;;;;;;;16.93;37.13;99072.63;4888298;29;20644;-72
2021/03/25 15:31:10;;;;;;;18.15;8.90;;;;;;;16.78;37.73;99071.44;4888544;29;20054;-72
2021/03/25 15:33:37;;;;;;;14.68;7.72;;;;;;;16.67;37.37;99069.19;4888175;29;20446;-72
2021/03/25 15:36:06;;;;;;;12.40;6.82;;;;;;;17.05;37.61;99068.66;4888774;29;20037;-72
2021/03/25 15:38:32;;;;;;;;;;;;;;;17.21;37.15;99068.00;4886578;29;20220;-71
2021/03/25 15:41:09;;;;;;;14.60;7.32;;;;;;;16.56;37.71;99073.97;4891694;29;19919;-71
2021/03/25 15:43:35;;;;;;;14.73;8.20;;;;;;;16.73;37.41;99069.88;4907869;29;21851;-71
2021/03/25 15:46:01;;;;;;;14.30;8.13;;;;;;;16.58;37.44;99072.13;4891396;29;20043;-72
2021/03/25 15:48:27;;;;;;;19.33;7.97;;;;;;;16.62;38.20;99073.75;4890370;29;20119;-71
2021/03/25 15:50:55;;;;;;;17.30;9.18;;;;;;;16.36;37.68;99077.34;4890351;29;20046;-71
2021/03/25 15:53:26;;;;;;;14.50;7.72;;;;;;;16.98;37.03;99075.91;4887703;29;20044;-70
2021/03/25 15:55:51;;;;;;;15.77;8.40;;;;;;;16.72;37.51;99078.66;4888959;29;20051;-71
2021/03/25 15:58:18;;;;;;;15.65;7.63;;;;;;;17.39;37.18;99073.38;4887764;29;20028;-71
2021/03/25 16:00:43;;;;;;;16.35;9.00;;;;;;;17.16;37.07;99085.66;4888460;29;20044;-71
2021/03/25 16:03:09;;;;;;;16.33;8.88;;;;;;;16.88;37.73;99092.88;4886559;29;20024;-71
2021/03/25 16:05:35;;;;;;;13.88;8.13;;;;;;;17.14;36.94;99087.47;4886607;29;22448;-72
2021/03/25 16:08:01;;;;;;;16.23;8.70;;;;;;;16.94;37.50;99090.03;4888564;29;20038;-71